Time;durP1;ratioP1;P1;durP2;ratioP2;P2;SDS_P1;SDS_P2;PMS_P1;PMS_P2;Temp;Humidity;BMP_temperature;BMP_pressure;BME280_temperature;BME280_humidity;BME280_pressure;Samples;Min_cycle;Max_cycle;Signal;HPM_P1;HPM_P2
2022/05/02 00:00:46;;;;;;;15.00;7.50;;;;;;;2.83;85.33;100488.54;106669;1271;59738;-66
2022/05/02 00:03:33;;;;;;;14.50;7.10;;;;;;;2.79;85.76;100488.52;105040;1271;59642;-66
2022/05/02 00:06:21;;;;;;;16.00;8.20;;;;;;;2.78;85.92;100487.15;105100;1271;73577;-67
2022/05/02 00:09:10;;;;;;;16.70;8.10;;;;;;;2.74;86.13;100488.18;104265;1271;1002982;-66
2022/05/02 00:11:58;;;;;;;16.20;7.70;;;;;;;2.72;86.57;100485.95;105172;1271;72637;-67
2022/05/02 00:14:46;;;;;;;16.80;7.80;;;;;;;2.71;86.60;100485.66;104985;1271;59726;-67
2022/05/02 00:20:42;;;;;;;16.00;7.70;;;;;;;2.68;87.86;100485.92;105143;1271;73282;-66
2022/05/02 00:23:30;;;;;;;14.10;7.80;;;;;;;2.67;88.09;100488.09;104790;1271;69564;-65
2022/05/02 00:26:18;;;;;;;13.10;7.20;;;;;;;2.67;88.14;100488.96;102110;1271;1003766;-66
2022/05/02 00:29:08;;;;;;;15.10;7.20;;;;;;;2.66;88.21;100485.31;104855;1271;59665;-64
2022/05/02 00:31:58;;;;;;;16.40;7.90;;;;;;;2.64;88.61;100487.33;104931;1271;61579;-67
2022/05/02 00:34:46;;;;;;;16.40;7.20;;;;;;;2.61;88.69;100482.88;104942;1271;73950;-64
2022/05/02 00:37:41;;;;;;;17.70;8.30;;;;;;;2.58;89.10;100484.59;105072;1271;68602;-68
2022/05/02 00:40:29;;;;;;;15.80;7.50;;;;;;;2.53;89.27;100484.23;104841;1274;73283;-67
2022/05/02 00:43:17;;;;;;;17.50;8.30;;;;;;;2.49;89.54;100480.01;104808;1271;60186;-66
2022/05/02 00:46:20;;;;;;;20.30;9.40;;;;;;;2.48;89.96;100484.26;104862;1271;60758;-65
2022/05/02 00:49:08;;;;;;;20.30;9.30;;;;;;;2.48;90.25;100480.39;104870;1271;73680;-67
2022/05/02 00:51:56;;;;;;;17.40;9.00;;;;;;;2.48;90.37;100477.59;105129;1271;69462;-64
2022/05/02 00:54:46;;;;;;;17.80;9.20;;;;;;;2.50;90.60;100474.54;105069;1271;72214;-67
2022/05/02 00:57:34;;;;;;;20.00;8.70;;;;;;;2.51;90.58;100477.30;105071;1271;60274;-68
2022/05/02 01:00:22;;;;;;;15.50;7.90;;;;;;;2.53;90.72;100477.58;104974;1271;60252;-67
2022/05/02 01:03:12;;;;;;;18.20;8.20;;;;;;;2.52;90.48;100473.92;104898;1271;73691;-69
2022/05/02 01:09:10;;;;;;;18.70;8.30;;;;;;;2.48;90.55;100468.29;104982;1272;72293;-68
2022/05/02 01:11:58;;;;;;;15.40;7.90;;;;;;;2.44;90.28;100472.15;104911;1271;59561;-68
2022/05/02 01:14:54;;;;;;;14.60;8.20;;;;;;;2.38;90.47;100471.99;104960;1271;61873;-68
2022/05/02 01:17:44;;;;;;;18.20;8.50;;;;;;;2.33;90.35;100472.72;104924;1271;72904;-64
2022/05/02 01:20:32;;;;;;;16.00;9.30;;;;;;;2.30;90.58;100472.84;104768;1271;68616;-68
2022/05/02 01:23:24;;;;;;;18.20;9.50;;;;;;;2.27;90.49;100469.97;104985;1271;73666;-67
2022/05/02 01:26:13;;;;;;;18.10;9.50;;;;;;;2.25;90.47;100467.41;105006;1271;59720;-68
2022/05/02 01:29:01;;;;;;;17.50;8.60;;;;;;;2.23;90.25;100464.70;104988;1271;60254;-69
2022/05/02 01:31:49;;;;;;;15.90;7.80;;;;;;;2.21;90.44;100465.11;104783;1271;73763;-67
2022/05/02 01:34:42;;;;;;;19.40;8.90;;;;;;;2.19;90.47;100463.09;105049;1271;66511;-68
2022/05/02 01:37:31;;;;;;;18.40;8.30;;;;;;;2.17;90.65;100465.77;104809;1271;74444;-68
2022/05/02 01:40:19;;;;;;;15.60;7.60;;;;;;;2.16;90.73;100464.40;104983;1271;59857;-67
2022/05/02 01:43:09;;;;;;;18.70;7.90;;;;;;;2.14;90.74;100463.06;104986;1271;59917;-66
2022/05/02 01:46:04;;;;;;;13.90;7.30;;;;;;;2.13;90.90;100461.73;104864;1271;73789;-65
2022/05/02 01:48:52;;;;;;;17.50;7.70;;;;;;;2.10;90.91;100462.88;104774;1271;68716;-66
2022/05/02 01:51:40;;;;;;;16.10;8.10;;;;;;;2.04;90.88;100460.96;104797;1273;73858;-69
2022/05/02 01:54:28;;;;;;;17.30;8.10;;;;;;;1.99;90.86;100461.86;104890;1271;59751;-65
2022/05/02 01:57:16;;;;;;;17.90;9.00;;;;;;;1.94;91.15;100459.09;104887;1271;60076;-68
2022/05/02 02:00:06;;;;;;;18.20;9.00;;;;;;;1.90;91.15;100457.48;105157;1271;73923;-67
2022/05/02 02:03:02;;;;;;;17.10;8.90;;;;;;;1.86;91.45;100452.86;104722;1273;69044;-67
2022/05/02 02:05:51;;;;;;;19.80;8.40;;;;;;;1.84;91.83;100455.02;105067;1271;72262;-68
2022/05/02 02:08:40;;;;;;;19.30;9.00;;;;;;;1.84;92.07;100453.66;104917;1271;59792;-67
2022/05/02 02:11:28;;;;;;;19.00;9.00;;;;;;;1.84;92.37;100453.64;103582;1272;1002682;-69
2022/05/02 02:14:16;;;;;;;15.60;8.60;;;;;;;1.85;92.58;100451.68;104922;1271;73723;-66
2022/05/02 02:17:04;;;;;;;17.10;9.00;;;;;;;1.85;92.72;100452.89;104991;1274;68216;-68
2022/05/02 02:19:52;;;;;;;17.90;8.60;;;;;;;1.85;93.03;100452.55;104902;1271;74317;-67
2022/05/02 02:22:41;;;;;;;17.50;8.30;;;;;;;1.85;93.16;100451.52;104882;1271;59604;-68
2022/05/02 02:25:28;;;;;;;13.60;6.80;;;;;;;1.85;93.01;100453.95;105095;1271;61582;-67
2022/05/02 02:28:17;;;;;;;19.60;8.60;;;;;;;1.84;93.47;100454.88;105126;1271;73617;-67
2022/05/02 02:31:05;;;;;;;17.10;8.30;;;;;;;1.81;93.45;100453.40;104942;1271;67109;-67
2022/05/02 02:33:53;;;;;;;18.70;9.20;;;;;;;1.78;93.42;100448.97;104772;1272;74502;-67
2022/05/02 02:36:41;;;;;;;20.00;10.10;;;;;;;1.74;93.31;100452.08;104882;1271;59760;-67
2022/05/02 02:39:29;;;;;;;22.40;10.90;;;;;;;1.71;93.42;100451.98;104866;1271;61016;-67
2022/05/02 02:42:17;;;;;;;22.10;10.40;;;;;;;1.69;93.47;100455.91;104970;1271;74540;-67
2022/05/02 02:45:07;;;;;;;21.60;10.90;;;;;;;1.67;93.77;100454.38;105122;1271;68729;-67
2022/05/02 02:47:54;;;;;;;20.40;10.60;;;;;;;1.67;93.86;100452.83;104759;1271;73048;-69
2022/05/02 02:50:42;;;;;;;19.50;10.30;;;;;;;1.67;93.95;100454.23;104912;1271;59852;-67
2022/05/02 02:53:33;;;;;;;20.70;10.70;;;;;;;1.67;93.86;100454.94;105048;1271;61312;-68
2022/05/02 02:56:21;;;;;;;21.80;10.80;;;;;;;1.67;93.90;100451.26;104797;1274;72730;-68
2022/05/02 02:59:10;;;;;;;23.40;13.80;;;;;;;1.67;94.16;100453.52;104896;1274;66269;-69
2022/05/02 03:01:58;;;;;;;20.90;12.20;;;;;;;1.69;94.15;100456.44;105344;1271;74490;-64
2022/05/02 03:07:53;;;;;;;20.20;10.70;;;;;;;1.70;94.48;100456.56;105378;1271;59923;-70
2022/05/02 03:10:41;;;;;;;17.00;9.10;;;;;;;1.72;94.30;100456.70;105339;1271;73244;-70
2022/05/02 03:13:30;;;;;;;15.60;8.60;;;;;;;1.73;94.50;100454.75;105217;1271;67996;-72
2022/05/02 03:16:18;;;;;;;17.10;9.00;;;;;;;1.72;94.20;100453.38;104806;1271;74444;-70
2022/05/02 03:19:06;;;;;;;20.50;9.90;;;;;;;1.72;94.11;100450.75;104779;1271;59675;-68
2022/05/02 03:21:54;;;;;;;18.80;9.30;;;;;;;1.73;94.17;100447.23;105099;1271;59569;-67
2022/05/02 03:24:42;;;;;;;17.40;9.40;;;;;;;1.76;94.11;100450.45;104930;1274;73458;-70
2022/05/02 03:27:30;;;;;;;16.70;8.50;;;;;;;1.78;94.02;100447.73;104843;1271;65907;-69
2022/05/02 03:30:18;;;;;;;18.90;8.30;;;;;;;1.80;94.18;100451.15;104846;1271;70252;-69
2022/05/02 03:33:12;;;;;;;17.20;8.80;;;;;;;1.82;94.02;100448.11;105143;1271;59672;-69
2022/05/02 03:36:00;;;;;;;18.80;8.60;;;;;;;1.86;94.08;100446.20;104994;1271;60059;-69
2022/05/02 03:38:48;;;;;;;16.20;8.20;;;;;;;1.92;93.93;100448.13;104807;1271;72673;-67
2022/05/02 03:41:36;;;;;;;16.80;8.00;;;;;;;1.98;94.11;100449.47;104908;1271;67552;-68
2022/05/02 03:44:24;;;;;;;14.70;7.60;;;;;;;2.03;93.87;100449.12;104856;1271;73295;-69
2022/05/02 03:47:12;;;;;;;17.20;7.60;;;;;;;2.06;93.56;100442.71;104910;1271;60300;-67
2022/05/02 03:50:00;;;;;;;17.70;7.80;;;;;;;2.09;93.28;100447.70;104871;1271;60379;-68
2022/05/02 03:52:48;;;;;;;15.50;8.10;;;;;;;2.11;93.31;100446.59;104844;1271;72705;-69
2022/05/02 03:55:37;;;;;;;19.20;9.70;;;;;;;2.14;93.32;100448.93;104842;1271;69631;-71
2022/05/02 03:58:25;;;;;;;17.80;8.40;;;;;;;2.18;93.25;100448.23;104859;1271;73226;-69
2022/05/02 04:01:13;;;;;;;16.80;7.80;;;;;;;2.24;93.37;100446.95;104691;1271;59721;-68
2022/05/02 04:04:03;;;;;;;15.70;7.90;;;;;;;2.30;93.36;100443.41;105090;1271;59534;-68
2022/05/02 04:06:52;;;;;;;16.20;7.70;;;;;;;2.37;93.22;100438.60;104871;1271;73486;-68
2022/05/02 04:09:40;;;;;;;14.30;8.10;;;;;;;2.45;93.01;100442.66;105027;1271;67582;-68
2022/05/02 04:12:38;;;;;;;12.90;7.30;;;;;;;2.53;93.03;100443.07;104946;1274;74201;-67
2022/05/02 04:15:27;;;;;;;13.90;7.30;;;;;;;2.62;92.94;100444.65;104953;1274;59743;-69
2022/05/02 04:18:16;;;;;;;14.10;6.70;;;;;;;2.71;92.83;100445.54;104731;1273;59550;-68
2022/05/02 04:21:03;;;;;;;14.40;7.00;;;;;;;2.80;92.52;100440.11;105019;1271;74000;-67
2022/05/02 04:23:52;;;;;;;17.50;7.40;;;;;;;2.88;92.32;100440.13;105142;1271;66636;-68
2022/05/02 04:26:40;;;;;;;12.60;7.00;;;;;;;2.96;92.06;100436.29;104706;1271;72781;-68
2022/05/02 04:29:28;;;;;;;13.70;7.40;;;;;;;3.05;91.58;100438.23;104938;1271;59770;-69
2022/05/02 04:32:16;;;;;;;14.80;6.60;;;;;;;3.15;91.64;100437.66;104915;1271;60350;-67
2022/05/02 04:35:10;;;;;;;13.10;6.60;;;;;;;3.27;91.42;100439.10;104811;1274;73707;-68
2022/05/02 04:37:58;;;;;;;15.50;6.90;;;;;;;3.40;90.78;100437.70;104827;1271;67497;-69
2022/05/02 04:40:46;;;;;;;15.90;6.50;;;;;;;3.53;90.51;100437.33;104747;1271;74380;-67
2022/05/02 04:43:34;;;;;;;13.30;6.50;;;;;;;3.66;90.10;100437.11;104821;1271;59806;-63
2022/05/02 04:46:23;;;;;;;12.60;5.50;;;;;;;3.79;89.73;100441.46;104927;1271;61022;-66
2022/05/02 04:49:11;;;;;;;13.20;6.00;;;;;;;3.92;89.22;100441.26;105017;1274;74145;-65
2022/05/02 04:51:59;;;;;;;19.40;10.30;;;;;;;4.05;88.75;100439.42;104969;1271;69435;-66
2022/05/02 04:54:46;;;;;;;15.40;7.50;;;;;;;4.18;88.41;100440.11;104931;1271;74716;-67
2022/05/02 04:57:35;;;;;;;16.30;6.80;;;;;;;4.32;87.90;100438.77;104781;1271;59754;-66
2022/05/02 05:00:23;;;;;;;14.40;6.80;;;;;;;4.49;87.27;100444.83;104807;1272;60598;-66
2022/05/02 05:03:11;;;;;;;12.40;6.40;;;;;;;4.65;86.71;100443.73;104746;1271;74127;-65
2022/05/02 05:06:00;;;;;;;31.40;16.80;;;;;;;4.86;86.39;100439.23;104884;1271;66435;-67
2022/05/02 05:08:48;;;;;;;15.40;7.00;;;;;;;5.08;85.50;100443.96;105087;1271;74318;-69
2022/05/02 05:12:16;;;;;;;14.60;6.60;;;;;;;5.34;84.82;100442.36;105210;1271;59640;-68
2022/05/02 05:19:02;;;;;;;12.80;6.10;;;;;;;6.63;80.98;100437.38;104945;1271;73038;-66
2022/05/02 05:22:31;;;;;;;12.80;5.90;;;;;;;8.52;76.83;100424.64;104808;1271;69077;-66
2022/05/02 05:25:42;;;;;;;12.30;5.30;;;;;;;10.88;70.35;100418.59;104767;1271;71863;-65
2022/05/02 05:28:58;;;;;;;11.30;5.00;;;;;;;13.03;61.94;100407.73;105084;1271;59652;-67
2022/05/02 05:32:22;;;;;;;8.60;4.10;;;;;;;15.10;55.36;100403.20;104885;1271;59652;-67
2022/05/02 05:35:14;;;;;;;8.40;3.80;;;;;;;16.91;48.39;100396.54;104806;1271;72932;-65
2022/05/02 05:38:10;;;;;;;14.00;9.40;;;;;;;18.25;44.39;100395.18;104747;1272;68538;-68
2022/05/02 05:41:22;;;;;;;8.80;3.80;;;;;;;19.69;41.28;100387.95;104959;1271;73510;-69
2022/05/02 05:44:43;;;;;;;8.80;4.10;;;;;;;21.11;36.75;100381.98;104770;1271;59775;-69
2022/05/02 05:47:47;;;;;;;7.90;3.50;;;;;;;22.29;33.59;100383.28;105149;1272;59596;-68
2022/05/02 05:50:47;;;;;;;9.50;3.10;;;;;;;23.27;31.63;100372.45;105021;1271;73242;-69
2022/05/02 05:54:15;;;;;;;7.60;2.70;;;;;;;24.14;29.71;100368.34;104797;1272;68602;-69
2022/05/02 05:57:42;;;;;;;7.00;2.60;;;;;;;24.90;27.62;100363.63;104949;1271;72682;-68
2022/05/02 06:00:37;;;;;;;7.10;2.50;;;;;;;25.44;26.12;100354.77;105037;1271;59691;-71
2022/05/02 06:03:31;;;;;;;8.80;2.50;;;;;;;25.79;25.07;100353.26;104862;1272;60313;-71
2022/05/02 06:06:22;;;;;;;6.40;2.10;;;;;;;25.92;24.44;100352.94;104930;1271;72723;-72
2022/05/02 06:09:11;;;;;;;8.40;2.50;;;;;;;26.06;23.89;100354.86;104827;1271;69566;-72
2022/05/02 06:11:59;;;;;;;7.40;2.30;;;;;;;26.22;23.56;100354.01;104948;1273;73464;-71
2022/05/02 06:21:15;;;;;;;5.70;1.90;;;;;;;27.05;22.00;100347.48;105098;1271;73820;-69
2022/05/02 06:24:04;;;;;;;7.70;2.20;;;;;;;27.18;21.59;100342.64;104816;1273;68621;-68
2022/05/02 06:26:54;;;;;;;6.60;2.10;;;;;;;27.37;21.38;100339.98;104716;1271;73279;-70
2022/05/02 06:29:42;;;;;;;6.60;2.00;;;;;;;27.75;21.32;100335.78;104917;1271;59812;-68
2022/05/02 06:32:31;;;;;;;6.10;2.00;;;;;;;28.27;20.04;100333.66;104779;1269;59677;-70
2022/05/02 06:35:20;;;;;;;7.40;2.10;;;;;;;28.66;19.50;100334.61;104819;1271;73788;-69
2022/05/02 06:38:40;;;;;;;5.10;1.40;;;;;;;28.73;19.10;100336.04;104822;1271;68373;-69
2022/05/02 06:41:41;;;;;;;6.00;1.60;;;;;;;28.99;19.06;100331.18;104787;1271;73286;-71
2022/05/02 06:45:19;;;;;;;6.60;1.70;;;;;;;29.28;18.61;100331.55;105108;1271;59619;-69
2022/05/02 06:48:35;;;;;;;6.80;1.70;;;;;;;29.59;18.09;100327.67;105130;1271;59667;-69
2022/05/02 06:51:37;;;;;;;5.90;1.60;;;;;;;29.74;18.05;100328.16;104809;1271;72460;-70
2022/05/02 06:54:45;;;;;;;5.80;1.60;;;;;;;29.66;18.00;100335.95;104862;1271;68483;-66
2022/05/02 06:57:48;;;;;;;6.30;1.90;;;;;;;29.87;17.85;100337.34;105272;1271;71302;-70
2022/05/02 07:00:52;;;;;;;5.70;1.80;;;;;;;30.12;17.56;100334.80;105048;1271;59817;-69
2022/05/02 07:04:09;;;;;;;6.50;2.40;;;;;;;29.96;17.05;100339.24;105258;1271;60495;-68
2022/05/02 07:07:24;;;;;;;8.50;4.40;;;;;;;29.96;17.13;100333.49;105005;1271;73372;-68
2022/05/02 07:10:26;;;;;;;7.10;2.20;;;;;;;30.15;16.92;100335.42;105393;1271;68449;-71
2022/05/02 07:13:45;;;;;;;7.20;1.90;;;;;;;30.18;16.47;100333.58;105046;1271;74268;-70
2022/05/02 07:16:37;;;;;;;7.30;2.20;;;;;;;30.17;16.34;100334.75;104958;1271;59710;-68
2022/05/02 07:19:40;;;;;;;9.50;2.30;;;;;;;30.00;16.71;100328.96;104820;1271;60260;-70
2022/05/02 07:22:36;;;;;;;6.60;2.20;;;;;;;29.85;16.85;100331.44;105080;1271;73221;-69
2022/05/02 07:25:25;;;;;;;6.30;2.10;;;;;;;29.44;16.99;100332.63;105220;1271;67931;-70
2022/05/02 07:28:49;;;;;;;6.90;2.10;;;;;;;29.33;17.32;100331.01;105034;1271;71031;-71
2022/05/02 07:31:40;;;;;;;7.50;2.80;;;;;;;29.52;17.17;100330.73;104955;1272;59783;-70
2022/05/02 07:34:29;;;;;;;7.40;2.60;;;;;;;29.59;16.53;100327.94;105108;1271;60569;-69
2022/05/02 07:37:23;;;;;;;6.00;2.10;;;;;;;29.40;16.14;100325.29;104899;1271;73133;-70
2022/05/02 07:40:16;;;;;;;7.70;2.00;;;;;;;29.62;16.38;100325.37;105154;1271;67893;-69
2022/05/02 07:43:09;;;;;;;6.70;2.30;;;;;;;29.68;16.31;100325.14;104989;1271;72842;-69
2022/05/02 07:46:06;;;;;;;7.10;2.30;;;;;;;29.41;16.49;100322.50;105247;1272;59732;-70
2022/05/02 07:48:57;;;;;;;6.20;2.00;;;;;;;29.42;17.08;100324.37;105029;1271;59697;-68
2022/05/02 07:51:47;;;;;;;8.30;3.00;;;;;;;29.29;17.20;100321.64;104913;1271;73466;-70
2022/05/02 07:54:40;;;;;;;7.90;3.30;;;;;;;29.27;17.28;100317.70;104974;1271;69371;-72
2022/05/02 07:57:32;;;;;;;6.80;2.20;;;;;;;29.26;17.56;100316.30;104836;1271;73298;-70
2022/05/02 08:00:22;;;;;;;7.60;2.40;;;;;;;29.34;17.04;100317.94;104714;1271;59830;-71
2022/05/02 08:03:14;;;;;;;8.10;2.30;;;;;;;29.25;17.18;100313.31;105095;1271;62014;-68
2022/05/02 08:06:28;;;;;;;6.80;1.80;;;;;;;29.16;16.67;100309.05;104829;1271;72513;-71
2022/05/02 08:10:10;;;;;;;8.60;2.20;;;;;;;28.80;16.59;100308.59;104797;1272;68728;-70
2022/05/02 08:13:45;;;;;;;6.60;1.90;;;;;;;28.78;16.69;100311.81;104534;1277;73487;-70
2022/05/02 08:16:39;;;;;;;6.30;1.60;;;;;;;28.60;16.15;100308.85;104497;1277;59766;-66
2022/05/02 08:20:00;;;;;;;5.60;1.50;;;;;;;28.35;15.94;100307.73;104361;1278;60310;-68
2022/05/02 08:30:22;;;;;;;7.30;1.40;;;;;;;27.94;16.25;100302.88;104667;1277;74155;-70
2022/05/02 08:33:21;;;;;;;9.40;1.60;;;;;;;28.01;16.24;100299.05;104433;1277;59653;-70
2022/05/02 08:36:26;;;;;;;6.50;2.30;;;;;;;27.99;16.38;100296.55;104425;1277;62152;-69
2022/05/02 08:39:22;;;;;;;6.30;1.50;;;;;;;28.21;16.15;100295.62;104457;1277;73868;-68
2022/05/02 08:42:41;;;;;;;7.60;2.70;;;;;;;28.34;16.01;100289.92;104491;1277;69616;-69
2022/05/02 08:45:44;;;;;;;8.00;1.80;;;;;;;28.57;16.30;100291.14;104391;1277;74204;-69
2022/05/02 08:49:32;;;;;;;7.80;1.80;;;;;;;28.70;16.54;100289.66;104447;1277;59762;-69
2022/05/02 08:52:41;;;;;;;6.20;1.60;;;;;;;28.72;15.66;100291.20;105121;1271;60594;-68
2022/05/02 08:55:54;;;;;;;5.50;1.40;;;;;;;28.81;15.79;100293.36;104953;1271;73607;-67
2022/05/02 08:59:00;;;;;;;6.30;1.80;;;;;;;28.53;16.35;100294.64;105075;1271;67221;-67
2022/05/02 09:02:22;;;;;;;6.30;1.90;;;;;;;28.30;16.03;100285.86;104732;1271;73386;-67
2022/05/02 09:05:38;;;;;;;5.70;1.50;;;;;;;28.22;16.32;100275.48;105041;1271;59752;-66
2022/05/02 09:09:07;;;;;;;7.50;1.60;;;;;;;28.38;16.20;100275.73;104687;1271;343351;-72
2022/05/02 09:12:39;;;;;;;5.00;1.10;;;;;;;28.45;16.11;100274.97;105193;1271;72628;-73
2022/05/02 09:16:07;;;;;;;5.70;1.50;;;;;;;28.16;16.29;100273.50;104836;1271;67515;-66
2022/05/02 09:19:14;;;;;;;6.00;1.50;;;;;;;28.31;16.72;100266.96;105660;1271;74515;-68
2022/05/02 09:22:21;;;;;;;6.10;1.70;;;;;;;28.43;16.68;100263.57;107094;1271;59483;-68
2022/05/02 09:25:12;;;;;;;6.00;1.60;;;;;;;28.73;16.36;100261.69;106451;1271;61183;-68
2022/05/02 09:28:20;;;;;;;6.70;1.80;;;;;;;28.74;15.97;100253.11;106360;1271;74422;-69
2022/05/02 09:31:54;;;;;;;5.00;1.40;;;;;;;28.47;15.64;100255.35;104860;1271;68677;-66
2022/05/02 09:35:03;;;;;;;5.50;1.50;;;;;;;28.59;15.76;100249.76;105142;1271;73164;-69
2022/05/02 09:37:57;;;;;;;5.30;1.40;;;;;;;28.64;15.95;100253.63;105133;1271;60331;-69
2022/05/02 09:40:47;;;;;;;5.70;1.70;;;;;;;28.59;15.73;100248.39;105017;1271;59842;-67
2022/05/02 09:51:31;;;;;;;7.30;1.70;;;;;;;28.19;15.61;100234.20;104811;1271;72318;-70
2022/05/02 09:58:26;;;;;;;6.50;1.50;;;;;;;28.30;15.94;100220.73;104986;1271;59579;-68
2022/05/02 10:01:25;;;;;;;6.90;1.50;;;;;;;26.72;16.79;100223.42;104737;1271;71607;-69
2022/05/02 10:04:48;;;;;;;5.80;1.60;;;;;;;25.13;18.32;100225.84;104806;1271;69131;-68
2022/05/02 10:08:02;;;;;;;8.20;2.00;;;;;;;23.32;20.41;100227.03;104763;1272;73159;-68
2022/05/02 10:11:08;;;;;;;6.40;1.90;;;;;;;21.85;21.55;100226.62;104900;1271;59936;-70
2022/05/02 10:14:39;;;;;;;6.10;1.70;;;;;;;20.74;22.97;100224.09;105052;1271;59681;-68
2022/05/02 10:17:52;;;;;;;7.60;2.20;;;;;;;21.68;22.71;100213.50;104754;1271;73965;-67
2022/05/02 10:21:07;;;;;;;7.40;2.20;;;;;;;22.96;21.55;100203.58;104854;1271;68085;-68
2022/05/02 10:24:42;;;;;;;6.50;1.70;;;;;;;24.18;20.58;100195.00;105092;1271;73689;-65
2022/05/02 10:27:52;;;;;;;6.40;1.70;;;;;;;25.22;18.97;100189.10;104763;1271;59782;-67
2022/05/02 10:31:13;;;;;;;6.00;1.60;;;;;;;26.00;17.98;100179.91;104956;1271;62047;-69
2022/05/02 10:34:04;;;;;;;6.80;1.50;;;;;;;25.57;18.03;100176.36;104983;1274;74923;-69
2022/05/02 10:36:53;;;;;;;7.70;1.90;;;;;;;25.10;18.67;100173.03;104800;1271;69725;-68
2022/05/02 10:39:50;;;;;;;6.70;1.90;;;;;;;25.52;18.43;100174.70;104649;1271;73211;-68
2022/05/02 10:42:51;;;;;;;8.20;2.10;;;;;;;25.48;18.24;100166.64;104663;1271;59698;-68
2022/05/02 10:45:41;;;;;;;6.50;1.60;;;;;;;25.48;18.18;100160.75;104698;1271;59727;-68
2022/05/02 10:48:59;;;;;;;6.80;1.70;;;;;;;26.08;17.51;100152.44;104996;1271;72236;-69
2022/05/02 10:52:07;;;;;;;7.20;1.60;;;;;;;26.58;16.98;100149.80;104956;1271;68442;-67
2022/05/02 10:55:12;;;;;;;7.20;1.70;;;;;;;27.18;16.63;100148.34;104802;1271;73009;-70
2022/05/02 10:58:08;;;;;;;5.80;1.40;;;;;;;27.85;16.12;100143.00;104929;1272;59748;-68
2022/05/02 11:01:05;;;;;;;5.30;1.40;;;;;;;28.52;15.85;100138.06;104926;1271;61154;-69
2022/05/02 11:04:02;;;;;;;6.20;1.50;;;;;;;29.16;14.95;100135.58;105092;1271;73575;-67
2022/05/02 11:07:05;;;;;;;5.20;1.50;;;;;;;29.53;14.66;100128.69;104811;1271;67194;-68
2022/05/02 11:10:05;;;;;;;5.30;1.60;;;;;;;29.41;14.29;100133.42;104961;1271;73522;-69
2022/05/02 11:13:45;;;;;;;5.90;1.60;;;;;;;29.24;14.64;100131.31;104931;1271;59969;-68
2022/05/02 11:17:07;;;;;;;7.60;1.40;;;;;;;28.72;15.02;100121.38;104799;1271;61346;-68
2022/05/02 11:24:05;;;;;;;6.00;1.30;;;;;;;27.26;15.84;100109.35;104912;1271;69317;-69
2022/05/02 11:28:04;;;;;;;5.60;1.40;;;;;;;26.81;16.62;100104.13;104811;1271;71720;-70
2022/05/02 11:31:25;;;;;;;5.40;1.30;;;;;;;26.41;16.46;100100.71;103982;1284;59777;-68
2022/05/02 11:34:44;;;;;;;5.40;1.30;;;;;;;25.81;16.70;100098.08;103684;1284;60289;-66
2022/05/02 11:37:53;;;;;;;5.40;1.40;;;;;;;25.11;17.24;100102.01;103840;1284;73501;-69
2022/05/02 11:40:50;;;;;;;4.90;1.10;;;;;;;24.37;18.02;100098.52;103939;1284;69660;-67
2022/05/02 11:43:38;;;;;;;6.80;1.70;;;;;;;23.77;19.24;100099.30;103947;1284;71874;-68
2022/05/02 11:46:26;;;;;;;5.50;1.60;;;;;;;23.37;19.39;100105.51;104099;1284;59820;-69
2022/05/02 11:49:50;;;;;;;5.00;1.40;;;;;;;22.72;19.44;100105.16;103727;1285;60919;-70
2022/05/02 11:52:49;;;;;;;5.80;1.40;;;;;;;21.84;20.47;100101.41;103688;1284;73752;-71
2022/05/02 11:55:40;;;;;;;5.70;1.70;;;;;;;21.29;21.50;100106.40;104063;1285;69603;-69
2022/05/02 11:58:43;;;;;;;6.40;1.70;;;;;;;20.60;21.46;100098.08;104141;1284;71810;-69
2022/05/02 12:01:39;;;;;;;5.70;1.60;;;;;;;19.87;22.61;100098.29;104152;1284;59710;-68
2022/05/02 12:04:31;;;;;;;6.20;2.10;;;;;;;19.35;23.35;100092.10;103575;1284;59688;-69
2022/05/02 12:07:29;;;;;;;8.30;1.90;;;;;;;18.96;23.71;100091.56;103950;1274;72461;-67
2022/05/02 12:10:21;;;;;;;6.30;1.80;;;;;;;18.51;24.42;100087.11;105201;1271;69927;-70
2022/05/02 12:13:18;;;;;;;6.40;1.90;;;;;;;18.15;24.57;100089.61;104730;1271;72034;-67
2022/05/02 12:16:11;;;;;;;5.50;1.70;;;;;;;17.85;25.34;100084.30;104813;1271;59665;-67
2022/05/02 12:19:00;;;;;;;6.70;1.60;;;;;;;17.55;25.13;100080.75;104783;1271;61312;-68
2022/05/02 12:21:49;;;;;;;8.50;1.70;;;;;;;17.31;25.59;100079.10;104915;1271;73606;-68
2022/05/02 12:24:38;;;;;;;6.40;2.00;;;;;;;17.09;26.22;100078.08;104783;1271;68294;-67
2022/05/02 12:27:29;;;;;;;5.70;1.90;;;;;;;16.95;26.74;100077.38;105046;1271;74477;-67
2022/05/02 12:30:19;;;;;;;6.00;1.80;;;;;;;16.86;26.91;100074.88;104702;1271;59769;-67
2022/05/02 12:33:08;;;;;;;7.30;1.80;;;;;;;16.83;27.33;100067.57;104825;1271;61117;-69
2022/05/02 12:35:58;;;;;;;6.70;1.80;;;;;;;16.88;27.50;100061.08;104718;1271;71712;-67
2022/05/02 12:39:04;;;;;;;7.30;2.10;;;;;;;16.91;27.51;100057.36;105096;1271;66801;-66
2022/05/02 12:42:16;;;;;;;6.10;1.90;;;;;;;16.95;27.62;100048.85;105035;1271;72147;-68
2022/05/02 12:45:13;;;;;;;7.00;2.10;;;;;;;16.82;27.71;100050.89;104843;1271;59655;-69
2022/05/02 12:48:15;;;;;;;7.10;2.00;;;;;;;16.61;28.02;100048.17;104911;1271;60261;-68
2022/05/02 12:51:07;;;;;;;5.50;1.80;;;;;;;16.44;28.49;100038.30;104986;1271;74738;-70
2022/05/02 12:54:13;;;;;;;6.90;1.60;;;;;;;16.29;28.31;100036.81;104936;1271;68515;-69
2022/05/02 13:00:33;;;;;;;6.60;1.70;;;;;;;16.23;28.87;100027.04;104874;1271;59701;-70
2022/05/02 13:03:28;;;;;;;6.40;1.50;;;;;;;16.23;28.69;100024.35;105050;1271;60241;-70
2022/05/02 13:06:17;;;;;;;7.90;2.30;;;;;;;16.19;28.56;100018.92;104921;1271;74723;-68
2022/05/02 13:09:16;;;;;;;8.30;1.90;;;;;;;16.16;28.37;100015.69;104856;1271;68211;-69
2022/05/02 13:12:12;;;;;;;6.40;1.80;;;;;;;16.12;28.41;100018.11;105009;1271;74265;-69
2022/05/02 13:15:02;;;;;;;6.50;1.80;;;;;;;15.93;28.48;100014.14;104796;1271;59781;-71
2022/05/02 13:17:55;;;;;;;6.90;2.00;;;;;;;15.81;28.70;100010.34;104867;1271;59527;-70
2022/05/02 13:21:12;;;;;;;10.40;2.80;;;;;;;15.80;28.87;100005.80;105042;1271;74464;-69
2022/05/02 13:24:10;;;;;;;6.70;2.00;;;;;;;15.80;29.12;100000.21;104814;1271;66752;-68
2022/05/02 13:27:25;;;;;;;6.20;1.80;;;;;;;15.72;29.04;99995.15;105012;1271;73224;-70
2022/05/02 13:30:13;;;;;;;8.50;2.10;;;;;;;15.64;29.37;99994.23;104768;1271;59961;-69
2022/05/02 13:33:08;;;;;;;7.40;2.40;;;;;;;15.59;29.40;99993.15;104835;1271;61409;-70
2022/05/02 13:36:07;;;;;;;7.80;2.40;;;;;;;15.48;29.80;99989.80;104865;1271;73608;-69
2022/05/02 13:39:08;;;;;;;7.10;2.30;;;;;;;15.51;29.89;99983.05;104311;1272;1003486;-72
2022/05/02 13:42:03;;;;;;;6.10;2.10;;;;;;;15.53;29.67;99982.20;105216;1271;73550;-70
2022/05/02 13:44:58;;;;;;;6.70;2.20;;;;;;;15.53;30.04;99975.94;105100;1271;59783;-69
2022/05/02 13:48:28;;;;;;;6.60;2.20;;;;;;;15.52;30.04;99971.94;104930;1271;60348;-69
2022/05/02 13:51:35;;;;;;;6.00;1.90;;;;;;;15.54;30.20;99971.04;104891;1271;73945;-71
2022/05/02 13:54:34;;;;;;;5.40;1.90;;;;;;;15.57;30.29;99971.41;105112;1271;66730;-72
2022/05/02 13:57:57;;;;;;;5.90;1.80;;;;;;;15.64;30.29;99962.98;104859;1271;73406;-68
2022/05/02 14:01:45;;;;;;;6.00;1.80;;;;;;;15.73;30.19;99963.02;105053;1271;59685;-69
2022/05/02 14:04:53;;;;;;;6.00;2.10;;;;;;;15.74;29.94;99958.61;105036;1271;61925;-69
2022/05/02 14:07:47;;;;;;;8.10;1.90;;;;;;;15.75;29.92;99957.30;105036;1271;73712;-70
2022/05/02 14:10:56;;;;;;;6.00;1.70;;;;;;;15.70;29.66;99954.38;105156;1271;67170;-68
2022/05/02 14:13:49;;;;;;;5.80;1.90;;;;;;;15.68;30.04;99953.83;105401;1271;74442;-69
2022/05/02 14:16:38;;;;;;;6.10;1.90;;;;;;;15.71;29.56;99959.26;104865;1271;59748;-68
2022/05/02 14:19:30;;;;;;;6.20;1.80;;;;;;;15.67;29.74;99958.20;105161;1271;60269;-71
2022/05/02 14:22:37;;;;;;;5.70;1.70;;;;;;;15.62;29.32;99956.55;105045;1271;74731;-71
2022/05/02 14:25:44;;;;;;;4.90;1.40;;;;;;;15.44;29.30;99958.77;104888;1271;67276;-69